Metar Aviation Weather Data EDDG

14°C Temp
11°C Dewpoint
% Humidity
Temperature
19 KM/H
12 MPH
10 KTS
210°
South South
West

Wind Speed
Partly Cloudy
Conditions
Pressure 1010.92 (hPa) - 29.85 (in)
Visibility 6.2 (mi) - 10 (km)

Current Conditions
EDDG
Metar :EDDG 241320Z 21010KT 170V240 9999 FEW013 BKN025 14/11 Q1011 NOSIG
Sat 24th October 15:20 pm

  Metar Aviation API Data Provided by https://www.checkwx.com/ PHP scripts by weather34.com ©2020